createdAt,value
2022-08-05T00:00:19.173Z,27.30
2022-08-05T00:02:50.565Z,27.39
2022-08-05T00:05:27.485Z,27.27
2022-08-05T00:08:32.729Z,27.31
2022-08-05T00:11:00.569Z,27.14
2022-08-05T00:13:39.538Z,27.25
2022-08-05T00:16:12.690Z,27.33
2022-08-05T00:18:42.346Z,27.40
2022-08-05T00:21:10.694Z,27.40
2022-08-05T00:23:45.700Z,27.35
2022-08-05T00:26:16.499Z,27.18
2022-08-05T00:28:46.027Z,27.11
2022-08-05T00:31:14.422Z,27.00
2022-08-05T00:34:56.278Z,26.99
2022-08-05T00:37:20.097Z,26.81
2022-08-05T00:39:18.013Z,26.75
2022-08-05T00:41:55.178Z,26.63
2022-08-05T00:44:30.663Z,26.65
2022-08-05T00:47:02.043Z,26.56
2022-08-05T00:49:51.301Z,26.58
2022-08-05T00:52:28.337Z,26.62
2022-08-05T00:54:57.057Z,26.55
2022-08-05T00:57:38.067Z,26.48
2022-08-05T01:00:16.912Z,26.38
2022-08-05T01:02:45.038Z,26.48
2022-08-05T01:05:12.875Z,26.43
2022-08-05T01:08:41.990Z,26.40
2022-08-05T01:10:36.756Z,26.41
2022-08-05T01:13:12.928Z,26.32
2022-08-05T01:15:54.183Z,26.40
2022-08-05T01:18:27.519Z,26.37
2022-08-05T01:21:08.936Z,26.29
2022-08-05T01:23:57.864Z,26.27
2022-08-05T01:26:56.675Z,25.95
2022-08-05T01:29:33.178Z,25.62
2022-08-05T01:32:12.387Z,25.60
2022-08-05T01:34:49.681Z,25.46
2022-08-05T01:37:25.136Z,25.47
2022-08-05T01:39:58.819Z,25.55
2022-08-05T01:42:28.792Z,25.62
2022-08-05T01:45:02.075Z,25.58
2022-08-05T01:47:39.783Z,25.49
2022-08-05T01:50:17.395Z,25.47
2022-08-05T01:52:49.917Z,25.39
2022-08-05T01:55:21.602Z,25.44
2022-08-05T01:58:29.496Z,25.40
2022-08-05T02:00:45.357Z,25.38
2022-08-05T02:03:28.954Z,25.18
2022-08-05T02:06:01.022Z,25.25
2022-08-05T02:08:32.199Z,25.16
2022-08-05T02:11:03.910Z,25.16
2022-08-05T02:13:53.242Z,25.22
2022-08-05T02:16:27.550Z,25.04
2022-08-05T02:18:59.650Z,25.17
2022-08-05T02:21:32.376Z,25.22
2022-08-05T02:24:18.068Z,25.21
2022-08-05T02:26:53.835Z,25.13
2022-08-05T02:29:58.143Z,25.08
2022-08-05T02:32:23.637Z,24.95
2022-08-05T02:34:54.696Z,24.85
2022-08-05T02:37:24.910Z,24.71
2022-08-05T02:39:53.874Z,24.86
2022-08-05T02:42:26.113Z,24.81
2022-08-05T02:44:57.999Z,24.75
2022-08-05T02:48:07.405Z,24.40
2022-08-05T02:50:18.071Z,23.64
2022-08-05T02:52:47.673Z,23.04
2022-08-05T02:55:17.574Z,22.42
2022-08-05T02:58:11.605Z,22.53
2022-08-05T03:00:45.998Z,22.62
2022-08-05T03:03:17.713Z,22.56
2022-08-05T03:06:54.658Z,22.59
2022-08-05T03:08:37.030Z,22.52
2022-08-05T03:11:55.351Z,22.41
2022-08-05T03:14:03.239Z,22.38
2022-08-05T03:16:32.266Z,22.52
2022-08-05T03:19:04.277Z,22.28
2022-08-05T03:21:48.958Z,22.36
2022-08-05T03:24:23.604Z,22.27
2022-08-05T03:26:58.501Z,22.28
2022-08-05T03:29:45.781Z,22.21
2022-08-05T03:32:15.230Z,22.17
2022-08-05T03:34:51.352Z,22.14
2022-08-05T03:37:20.738Z,22.01
2022-08-05T03:40:01.458Z,21.93
2022-08-05T03:42:32.970Z,21.92
2022-08-05T03:45:22.023Z,21.78
2022-08-05T03:47:51.243Z,21.83
2022-08-05T03:50:21.456Z,21.94
2022-08-05T03:55:51.092Z,21.71
2022-08-05T03:56:04.692Z,21.68
2022-08-05T03:58:37.945Z,21.66
2022-08-05T04:01:12.833Z,21.60
2022-08-05T04:04:09.086Z,21.63
2022-08-05T04:06:35.626Z,21.69
2022-08-05T04:09:06.297Z,21.72
2022-08-05T04:11:50.420Z,21.93
2022-08-05T04:14:30.192Z,22.01
2022-08-05T04:17:00.293Z,22.05
2022-08-05T04:19:29.233Z,21.91
2022-08-05T04:22:09.352Z,21.90
2022-08-05T04:24:43.986Z,21.73
2022-08-05T04:27:14.123Z,21.74
2022-08-05T04:29:43.569Z,21.71
2022-08-05T04:32:11.578Z,21.62
2022-08-05T04:34:42.981Z,21.59
2022-08-05T04:37:20.025Z,21.53
2022-08-05T04:39:52.971Z,21.45
2022-08-05T04:42:20.931Z,21.46
2022-08-05T04:44:53.342Z,21.43
2022-08-05T04:47:21.206Z,21.32
2022-08-05T04:50:01.727Z,21.45
2022-08-05T04:52:34.070Z,21.40
2022-08-05T04:55:15.006Z,21.36
2022-08-05T04:57:47.905Z,21.45
2022-08-05T05:00:23.327Z,21.57
2022-08-05T05:02:51.717Z,21.60
2022-08-05T05:05:28.715Z,21.66
2022-08-05T05:08:02.606Z,22.03
2022-08-05T05:10:33.411Z,22.14
2022-08-05T05:13:04.311Z,22.02
2022-08-05T05:15:56.914Z,22.22
2022-08-05T05:18:31.482Z,22.20
2022-08-05T05:21:03.269Z,22.36
2022-08-05T05:24:01.731Z,22.57
2022-08-05T05:26:28.444Z,22.60
2022-08-05T05:29:02.155Z,22.61
2022-08-05T05:34:02.342Z,22.68
2022-08-05T05:36:31.467Z,22.68
2022-08-05T05:39:03.597Z,22.75
2022-08-05T05:41:40.932Z,22.81
2022-08-05T05:44:35.848Z,22.71
2022-08-05T05:46:58.266Z,22.82
2022-08-05T05:49:26.318Z,22.91
2022-08-05T05:51:54.401Z,23.00
2022-08-05T05:54:50.473Z,23.15
2022-08-05T05:57:19.925Z,23.09
2022-08-05T05:59:48.807Z,23.15
2022-08-05T06:02:17.175Z,23.39
2022-08-05T06:05:01.252Z,23.38
2022-08-05T06:07:41.736Z,23.49
2022-08-05T06:10:12.699Z,23.51
2022-08-05T06:12:42.198Z,23.43
2022-08-05T06:15:23.794Z,23.50
2022-08-05T06:17:54.417Z,23.63
2022-08-05T06:20:23.000Z,23.90
2022-08-05T06:22:51.079Z,24.20
2022-08-05T06:25:24.327Z,24.11
2022-08-05T06:28:10.656Z,24.10
2022-08-05T06:30:41.329Z,24.23
2022-08-05T06:33:09.907Z,24.43
2022-08-05T06:36:04.022Z,24.55
2022-08-05T06:38:36.134Z,24.56
2022-08-05T06:41:09.198Z,24.68
2022-08-05T06:43:58.934Z,24.60
2022-08-05T06:46:30.255Z,24.80
2022-08-05T06:48:59.530Z,24.90
2022-08-05T06:51:30.217Z,25.19
2022-08-05T06:53:59.316Z,25.02
2022-08-05T06:56:29.063Z,24.84
2022-08-05T06:58:57.345Z,24.96
2022-08-05T07:01:27.641Z,24.90
2022-08-05T07:04:01.327Z,24.80
2022-08-05T07:06:30.411Z,24.95
2022-08-05T07:09:03.815Z,24.94
2022-08-05T07:11:37.351Z,24.64
2022-08-05T07:14:30.038Z,24.54
2022-08-05T07:18:00.930Z,24.66
2022-08-05T07:20:31.759Z,24.72
2022-08-05T07:22:38.507Z,24.78
2022-08-05T07:25:22.752Z,24.87
2022-08-05T07:28:04.252Z,25.14
2022-08-05T07:30:38.806Z,24.88
2022-08-05T07:33:10.675Z,24.59
2022-08-05T07:36:02.247Z,24.85
2022-08-05T07:38:34.170Z,24.58
2022-08-05T07:42:09.118Z,24.60
2022-08-05T07:43:56.542Z,24.62
2022-08-05T07:46:26.565Z,24.77
2022-08-05T07:49:01.910Z,25.02
2022-08-05T07:51:36.994Z,24.85
2022-08-05T07:54:09.970Z,25.11
2022-08-05T07:56:59.883Z,25.22
2022-08-05T07:59:38.082Z,25.08
2022-08-05T08:02:16.064Z,25.11
2022-08-05T08:04:46.899Z,25.20
2022-08-05T08:07:15.449Z,25.17
2022-08-05T08:09:44.211Z,25.09
2022-08-05T08:12:35.638Z,25.02
2022-08-05T08:15:03.681Z,24.90
2022-08-05T08:17:32.719Z,24.99
2022-08-05T08:20:43.862Z,24.98
2022-08-05T08:22:53.276Z,25.08
2022-08-05T08:25:26.831Z,25.64
2022-08-05T08:28:18.793Z,25.51
2022-08-05T08:31:01.733Z,25.74
2022-08-05T08:33:37.564Z,25.80
2022-08-05T08:36:38.474Z,25.50
2022-08-05T08:38:55.491Z,25.51
2022-08-05T08:41:26.136Z,25.89
2022-08-05T08:45:17.009Z,26.00
2022-08-05T08:47:47.216Z,25.63
2022-08-05T08:50:13.120Z,25.66
2022-08-05T08:52:51.349Z,25.70
2022-08-05T08:55:31.958Z,25.82
2022-08-05T08:58:09.483Z,25.92
2022-08-05T09:00:37.850Z,25.73
2022-08-05T09:03:08.189Z,25.93
2022-08-05T09:05:38.572Z,26.23
2022-08-05T09:08:27.240Z,26.24
2022-08-05T09:10:58.292Z,26.37
2022-08-05T09:13:31.905Z,26.87
2022-08-05T09:16:17.043Z,26.50
2022-08-05T09:18:46.666Z,26.65
2022-08-05T09:21:20.872Z,26.21
2022-08-05T09:24:08.656Z,26.00
2022-08-05T09:26:38.275Z,25.91
2022-08-05T09:29:11.542Z,26.41
2022-08-05T09:32:40.886Z,26.19
2022-08-05T09:34:54.905Z,26.35
2022-08-05T09:38:12.892Z,26.98
2022-08-05T09:40:30.638Z,27.61
2022-08-05T09:43:01.084Z,27.66
2022-08-05T09:46:07.421Z,28.05
2022-08-05T09:48:29.470Z,27.74
2022-08-05T09:51:01.485Z,28.02
2022-08-05T09:53:53.542Z,28.13
2022-08-05T09:56:27.180Z,27.58
2022-08-05T09:58:59.530Z,27.70
2022-08-05T10:01:32.382Z,27.63
2022-08-05T10:04:04.491Z,27.64
2022-08-05T10:06:41.564Z,27.33
2022-08-05T10:09:27.303Z,28.16
2022-08-05T10:11:56.362Z,27.93
2022-08-05T10:14:30.248Z,27.77
2022-08-05T10:17:37.239Z,27.42
2022-08-05T10:20:10.104Z,27.03
2022-08-05T10:22:42.793Z,27.04
2022-08-05T10:25:16.823Z,27.08
2022-08-05T10:28:12.909Z,27.40
2022-08-05T10:31:20.620Z,27.85
2022-08-05T10:33:20.915Z,28.56
2022-08-05T10:35:59.269Z,29.18
2022-08-05T10:38:33.252Z,28.82
2022-08-05T10:41:09.629Z,28.45
2022-08-05T10:43:59.285Z,28.86
2022-08-05T10:46:44.430Z,28.62
2022-08-05T10:49:16.601Z,28.72
2022-08-05T10:51:58.304Z,29.21
2022-08-05T10:55:02.808Z,29.42
2022-08-05T10:57:33.672Z,29.64
2022-08-05T11:00:19.022Z,30.02
2022-08-05T11:03:23.285Z,28.94
2022-08-05T11:06:15.430Z,29.06
2022-08-05T11:09:16.765Z,29.01
2022-08-05T11:11:53.361Z,28.62
2022-08-05T11:14:49.326Z,28.02
2022-08-05T11:17:57.369Z,28.92
2022-08-05T11:20:41.667Z,28.48
2022-08-05T11:23:33.387Z,29.01
2022-08-05T11:26:28.563Z,29.48
2022-08-05T11:29:06.752Z,29.20
2022-08-05T11:31:56.609Z,28.95
2022-08-05T11:34:38.678Z,28.50
2022-08-05T11:38:28.890Z,28.53
2022-08-05T11:39:55.236Z,28.56
2022-08-05T11:42:29.540Z,28.31
2022-08-05T11:45:05.381Z,28.04
2022-08-05T11:47:48.746Z,28.62
2022-08-05T11:50:18.027Z,28.30
2022-08-05T11:52:49.522Z,28.83
2022-08-05T11:55:19.114Z,29.30
2022-08-05T11:58:09.999Z,29.95
2022-08-05T12:00:38.437Z,30.17
2022-08-05T12:03:29.630Z,30.20
2022-08-05T12:06:10.120Z,30.24
2022-08-05T12:08:49.822Z,30.36
2022-08-05T12:11:21.429Z,29.72
2022-08-05T12:13:59.395Z,29.47
2022-08-05T12:16:32.806Z,29.81
2022-08-05T12:19:08.318Z,29.98
2022-08-05T12:21:43.417Z,30.49
2022-08-05T12:24:17.151Z,29.54
2022-08-05T12:26:47.719Z,30.64
2022-08-05T12:29:17.990Z,29.87
2022-08-05T12:31:54.522Z,29.96
2022-08-05T12:34:28.098Z,30.51
2022-08-05T12:36:57.194Z,30.65
2022-08-05T12:39:28.320Z,31.28
2022-08-05T12:42:10.252Z,31.07
2022-08-05T12:44:44.384Z,30.94
2022-08-05T12:47:17.092Z,30.72
2022-08-05T12:50:03.202Z,30.05
2022-08-05T12:52:41.859Z,29.49
2022-08-05T12:55:23.857Z,28.77
2022-08-05T12:58:49.557Z,28.89
2022-08-05T13:02:00.690Z,29.11
2022-08-05T13:03:42.169Z,29.04
2022-08-05T13:06:20.233Z,29.81
2022-08-05T13:08:51.777Z,30.07
2022-08-05T13:11:35.062Z,30.05
2022-08-05T13:14:25.122Z,29.92
2022-08-05T13:17:09.139Z,30.04
2022-08-05T13:19:52.031Z,29.80
2022-08-05T13:22:27.813Z,29.40
2022-08-05T13:25:05.815Z,29.60
2022-08-05T13:27:39.345Z,28.88
2022-08-05T13:30:33.775Z,29.27
2022-08-05T13:33:01.295Z,29.34
2022-08-05T13:35:46.912Z,29.25
2022-08-05T13:38:31.153Z,28.99
2022-08-05T13:41:04.653Z,29.63
2022-08-05T13:43:43.476Z,29.99
2022-08-05T13:46:14.738Z,29.36
2022-08-05T13:48:58.389Z,28.78
2022-08-05T13:51:36.666Z,28.53
2022-08-05T13:54:12.676Z,28.66
2022-08-05T13:56:45.548Z,28.17
2022-08-05T13:59:21.434Z,28.05
2022-08-05T14:01:57.528Z,27.69
2022-08-05T14:04:49.954Z,27.27
2022-08-05T14:07:56.414Z,25.97
2022-08-05T14:10:12.510Z,24.73
2022-08-05T14:12:43.049Z,24.49
2022-08-05T14:16:05.017Z,24.81
2022-08-05T14:18:06.104Z,25.86
2022-08-05T14:20:43.294Z,26.74
2022-08-05T14:23:23.347Z,27.28
2022-08-05T14:25:54.123Z,28.55
2022-08-05T14:28:26.129Z,27.39
2022-08-05T14:30:54.480Z,26.91
2022-08-05T14:33:24.082Z,26.77
2022-08-05T14:35:54.036Z,26.20
2022-08-05T14:38:31.591Z,26.33
2022-08-05T14:41:01.730Z,26.25
2022-08-05T14:43:53.804Z,26.71
2022-08-05T14:46:22.772Z,27.08
2022-08-05T14:48:56.654Z,26.88
2022-08-05T14:51:30.814Z,26.66
2022-08-05T14:54:26.703Z,26.08
2022-08-05T14:56:49.029Z,25.93
2022-08-05T14:59:21.200Z,26.14
2022-08-05T15:01:49.892Z,26.05
2022-08-05T15:04:20.658Z,25.75
2022-08-05T15:06:50.409Z,25.82
2022-08-05T15:09:51.550Z,25.67
2022-08-05T15:12:11.836Z,25.26
2022-08-05T15:14:49.953Z,25.09
2022-08-05T15:17:47.097Z,24.91
2022-08-05T15:20:13.401Z,24.82
2022-08-05T15:22:54.081Z,24.60
2022-08-05T15:25:50.821Z,24.65
2022-08-05T15:28:16.300Z,24.73
2022-08-05T15:30:45.825Z,24.62
2022-08-05T15:33:22.047Z,24.67
2022-08-05T15:36:16.990Z,24.83
2022-08-05T15:40:39.683Z,24.81
2022-08-05T15:41:55.698Z,24.86
2022-08-05T15:44:28.095Z,24.57
2022-08-05T15:47:01.174Z,24.31
2022-08-05T15:49:53.555Z,24.34
2022-08-05T15:52:51.751Z,24.49
2022-08-05T15:55:08.439Z,24.20
2022-08-05T15:57:39.836Z,23.85
2022-08-05T16:00:10.630Z,23.80
2022-08-05T16:02:39.582Z,23.63
2022-08-05T16:05:13.610Z,23.68
2022-08-05T16:07:46.649Z,23.59
2022-08-05T16:10:25.404Z,23.65
2022-08-05T16:12:58.481Z,23.65
2022-08-05T16:15:32.436Z,23.76
2022-08-05T16:18:04.089Z,23.69
2022-08-05T16:20:36.958Z,23.62
2022-08-05T16:23:05.143Z,23.49
2022-08-05T16:25:36.702Z,23.56
2022-08-05T16:28:09.732Z,23.55
2022-08-05T16:30:38.821Z,23.47
2022-08-05T16:33:06.875Z,23.62
2022-08-05T16:35:42.006Z,23.75
2022-08-05T16:38:24.095Z,23.63
2022-08-05T16:40:55.174Z,23.43
2022-08-05T16:43:31.125Z,23.47
2022-08-05T16:46:05.930Z,23.22
2022-08-05T16:48:41.284Z,23.27
2022-08-05T16:51:11.006Z,23.23
2022-08-05T16:54:05.897Z,23.18
2022-08-05T16:56:34.083Z,23.23
2022-08-05T16:59:08.436Z,23.24
2022-08-05T17:01:52.921Z,23.27
2022-08-05T17:04:23.893Z,23.33
2022-08-05T17:06:55.550Z,23.27
2022-08-05T17:09:24.690Z,23.41
2022-08-05T17:11:59.830Z,23.51
2022-08-05T17:14:37.768Z,23.62
2022-08-05T17:17:14.979Z,23.48
2022-08-05T17:19:46.042Z,23.45
2022-08-05T17:22:24.781Z,23.37
2022-08-05T17:24:57.494Z,23.39
2022-08-05T17:27:33.644Z,23.26
2022-08-05T17:30:12.112Z,23.36
2022-08-05T17:32:46.968Z,23.31
2022-08-05T17:35:20.678Z,23.60
2022-08-05T17:37:49.135Z,23.55
2022-08-05T17:40:22.255Z,23.58
2022-08-05T17:42:53.014Z,23.67
2022-08-05T17:45:24.882Z,23.58
2022-08-05T17:47:58.917Z,23.56
2022-08-05T17:50:30.386Z,23.45
2022-08-05T17:53:05.608Z,23.43
2022-08-05T17:55:39.524Z,23.25
2022-08-05T17:58:11.052Z,23.31
2022-08-05T18:00:45.252Z,23.03
2022-08-05T18:06:12.171Z,22.84
2022-08-05T18:08:44.259Z,22.76
2022-08-05T18:11:23.685Z,22.83
2022-08-05T18:13:52.903Z,22.76
2022-08-05T18:16:22.516Z,22.48
2022-08-05T18:18:50.338Z,22.44
2022-08-05T18:21:21.172Z,22.42
2022-08-05T18:23:53.717Z,22.49
2022-08-05T18:26:27.801Z,22.34
2022-08-05T18:28:58.267Z,22.30
2022-08-05T18:31:33.174Z,22.28
2022-08-05T18:34:05.975Z,22.25
2022-08-05T18:36:35.959Z,22.12
2022-08-05T18:39:04.430Z,22.10
2022-08-05T18:41:57.092Z,21.83
2022-08-05T18:44:34.810Z,21.87
2022-08-05T18:47:04.966Z,21.73
2022-08-05T18:49:58.078Z,21.53
2022-08-05T18:52:35.692Z,21.47
2022-08-05T18:55:10.555Z,21.34
2022-08-05T18:57:50.019Z,21.26
2022-08-05T19:00:28.762Z,21.24
2022-08-05T19:03:03.366Z,21.13
2022-08-05T19:06:12.136Z,20.99
2022-08-05T19:08:30.498Z,20.96
2022-08-05T19:11:02.833Z,20.88
2022-08-05T19:13:36.062Z,20.82
2022-08-05T19:16:25.030Z,20.76
2022-08-05T19:18:56.797Z,20.68
2022-08-05T19:21:27.619Z,20.59
2022-08-05T19:24:08.170Z,20.46
2022-08-05T19:26:54.290Z,20.45
2022-08-05T19:29:23.733Z,20.46
2022-08-05T19:31:54.943Z,20.34
2022-08-05T19:34:27.682Z,20.25
2022-08-05T19:36:58.233Z,20.23
2022-08-05T19:39:28.315Z,20.25
2022-08-05T19:42:07.708Z,20.15
2022-08-05T19:44:44.980Z,20.19
2022-08-05T19:47:15.322Z,20.15
2022-08-05T19:49:48.016Z,20.05
2022-08-05T19:52:31.775Z,20.14
2022-08-05T19:56:11.587Z,20.06
2022-08-05T19:58:14.193Z,19.96
2022-08-05T20:00:40.547Z,20.00
2022-08-05T20:03:09.351Z,19.93
2022-08-05T20:05:42.950Z,19.86
2022-08-05T20:08:17.788Z,19.80
2022-08-05T20:10:45.642Z,19.76
2022-08-05T20:13:18.128Z,19.74
2022-08-05T20:15:58.294Z,19.80
2022-08-05T20:18:35.795Z,19.64
2022-08-05T20:21:07.106Z,19.71
2022-08-05T20:23:40.146Z,19.48
2022-08-05T20:26:18.653Z,19.55
2022-08-05T20:28:48.559Z,19.67
2022-08-05T20:31:17.466Z,19.53
2022-08-05T20:33:50.246Z,19.41
2022-08-05T20:36:20.614Z,19.47
2022-08-05T20:38:53.357Z,19.42
2022-08-05T20:41:26.878Z,19.44
2022-08-05T20:44:19.175Z,19.45
2022-08-05T20:46:59.454Z,19.44
2022-08-05T20:49:28.176Z,19.46
2022-08-05T20:51:58.655Z,19.50
2022-08-05T20:54:43.214Z,19.50
2022-08-05T20:57:24.815Z,19.43
2022-08-05T21:00:20.787Z,19.51
2022-08-05T21:02:58.048Z,19.53
2022-08-05T21:05:28.560Z,19.56
2022-08-05T21:08:15.611Z,19.21
2022-08-05T21:10:48.708Z,19.54
2022-08-05T21:13:41.293Z,19.35
2022-08-05T21:16:05.814Z,19.38
2022-08-05T21:18:33.754Z,19.22
2022-08-05T21:21:02.383Z,19.07
2022-08-05T21:23:37.031Z,19.07
2022-08-05T21:26:12.428Z,19.06
2022-08-05T21:28:47.990Z,18.94
2022-08-05T21:31:19.326Z,18.88
2022-08-05T21:33:49.452Z,18.86
2022-08-05T21:36:19.152Z,18.79
2022-08-05T21:38:57.279Z,18.90
2022-08-05T21:41:33.091Z,18.93
2022-08-05T21:44:04.101Z,18.90
2022-08-05T21:46:34.323Z,18.84
2022-08-05T21:49:04.711Z,18.78
2022-08-05T21:52:21.487Z,18.73
2022-08-05T21:54:28.167Z,18.64
2022-08-05T21:57:28.467Z,18.53
2022-08-05T22:00:05.264Z,18.56
2022-08-05T22:02:34.878Z,18.49
2022-08-05T22:05:04.597Z,18.66
2022-08-05T22:07:40.352Z,18.50
2022-08-05T22:10:25.488Z,18.45
2022-08-05T22:12:57.518Z,18.31
2022-08-05T22:16:04.680Z,18.28
2022-08-05T22:18:14.721Z,18.26
2022-08-05T22:20:44.240Z,18.17
2022-08-05T22:24:01.179Z,18.23
2022-08-05T22:26:38.315Z,18.19
2022-08-05T22:29:06.657Z,18.08
2022-08-05T22:31:44.492Z,18.20
2022-08-05T22:34:25.439Z,18.21
2022-08-05T22:36:56.520Z,18.23
2022-08-05T22:39:32.578Z,18.19
2022-08-05T22:42:11.096Z,18.08
2022-08-05T22:44:42.544Z,18.01
2022-08-05T22:47:29.897Z,17.98
2022-08-05T22:52:45.914Z,17.98
2022-08-05T22:55:18.916Z,17.92
2022-08-05T22:57:51.332Z,17.87
2022-08-05T23:00:21.661Z,17.91
2022-08-05T23:02:50.438Z,17.69
2022-08-05T23:05:19.135Z,17.60
2022-08-05T23:07:50.782Z,17.61
2022-08-05T23:10:20.292Z,17.55
2022-08-05T23:12:51.268Z,17.48
2022-08-05T23:15:22.344Z,17.40
2022-08-05T23:18:00.609Z,17.49
2022-08-05T23:20:31.067Z,17.53
2022-08-05T23:22:59.059Z,17.52
2022-08-05T23:25:51.447Z,17.37
2022-08-05T23:28:17.296Z,17.40
2022-08-05T23:30:53.799Z,17.50
2022-08-05T23:34:03.345Z,17.55
2022-08-05T23:36:13.662Z,17.49
2022-08-05T23:38:42.667Z,17.53
2022-08-05T23:41:11.425Z,17.52
2022-08-05T23:44:04.671Z,17.51
2022-08-05T23:46:28.868Z,17.59
2022-08-05T23:48:59.794Z,17.53
2022-08-05T23:51:53.981Z,17.64
2022-08-05T23:54:25.240Z,17.62
2022-08-05T23:57:03.994Z,17.60
